sensor_id;sensor_type;location;lat;lon;timestamp;temperature;humidity
16907;DHT22;8570;52.380;4.654;2023-11-18T00:02:30;5.90;99.90
16907;DHT22;8570;52.380;4.654;2023-11-18T00:07:36;6.00;99.90
16907;DHT22;8570;52.380;4.654;2023-11-18T00:12:38;6.00;99.90
16907;DHT22;8570;52.380;4.654;2023-11-18T00:17:41;6.00;99.90
16907;DHT22;8570;52.380;4.654;2023-11-18T00:22:45;6.00;99.90
16907;DHT22;8570;52.380;4.654;2023-11-18T00:27:46;6.00;99.90
16907;DHT22;8570;52.380;4.654;2023-11-18T00:32:48;6.00;99.90
16907;DHT22;8570;52.380;4.654;2023-11-18T00:37:52;6.00;99.90
16907;DHT22;8570;52.380;4.654;2023-11-18T00:42:54;6.00;99.90
16907;DHT22;8570;52.380;4.654;2023-11-18T00:47:55;6.00;99.90
16907;DHT22;8570;52.380;4.654;2023-11-18T00:52:59;6.00;99.90
16907;DHT22;8570;52.380;4.654;2023-11-18T00:58:00;6.00;99.90
16907;DHT22;8570;52.380;4.654;2023-11-18T01:03:02;6.00;99.90
16907;DHT22;8570;52.380;4.654;2023-11-18T01:08:06;5.90;99.90
16907;DHT22;8570;52.380;4.654;2023-11-18T01:13:09;6.00;99.90
16907;DHT22;8570;52.380;4.654;2023-11-18T01:18:11;6.00;99.90
16907;DHT22;8570;52.380;4.654;2023-11-18T01:23:15;6.00;99.90
16907;DHT22;8570;52.380;4.654;2023-11-18T01:28:17;6.00;99.90
16907;DHT22;8570;52.380;4.654;2023-11-18T01:33:19;6.00;99.90
16907;DHT22;8570;52.380;4.654;2023-11-18T01:38:22;6.00;99.90
16907;DHT22;8570;52.380;4.654;2023-11-18T01:43:24;6.00;99.90
16907;DHT22;8570;52.380;4.654;2023-11-18T01:48:26;6.00;99.90
16907;DHT22;8570;52.380;4.654;2023-11-18T01:53:31;6.00;99.90
16907;DHT22;8570;52.380;4.654;2023-11-18T01:58:37;6.00;99.90
16907;DHT22;8570;52.380;4.654;2023-11-18T02:03:39;6.00;99.90
16907;DHT22;8570;52.380;4.654;2023-11-18T02:08:44;6.10;99.90
16907;DHT22;8570;52.380;4.654;2023-11-18T02:13:48;6.10;99.90
16907;DHT22;8570;52.380;4.654;2023-11-18T02:18:52;6.20;99.90
16907;DHT22;8570;52.380;4.654;2023-11-18T02:23:58;6.20;99.90
16907;DHT22;8570;52.380;4.654;2023-11-18T02:29:01;6.20;99.90
16907;DHT22;8570;52.380;4.654;2023-11-18T02:34:07;6.20;99.90
16907;DHT22;8570;52.380;4.654;2023-11-18T02:39:14;6.30;99.90
16907;DHT22;8570;52.380;4.654;2023-11-18T02:44:20;6.30;99.90
16907;DHT22;8570;52.380;4.654;2023-11-18T02:49:23;6.30;99.90
16907;DHT22;8570;52.380;4.654;2023-11-18T02:54:25;6.30;99.90
16907;DHT22;8570;52.380;4.654;2023-11-18T02:59:29;6.30;99.90
16907;DHT22;8570;52.380;4.654;2023-11-18T03:04:31;6.30;99.90
16907;DHT22;8570;52.380;4.654;2023-11-18T03:09:34;6.30;99.90
16907;DHT22;8570;52.380;4.654;2023-11-18T03:14:40;6.40;99.90
16907;DHT22;8570;52.380;4.654;2023-11-18T03:19:42;6.40;99.90
16907;DHT22;8570;52.380;4.654;2023-11-18T03:24:44;6.40;99.90
16907;DHT22;8570;52.380;4.654;2023-11-18T03:29:50;6.40;99.90
16907;DHT22;8570;52.380;4.654;2023-11-18T03:34:52;6.40;99.90
16907;DHT22;8570;52.380;4.654;2023-11-18T03:39:54;6.40;99.90
16907;DHT22;8570;52.380;4.654;2023-11-18T03:44:57;6.40;99.90
16907;DHT22;8570;52.380;4.654;2023-11-18T03:49:59;6.40;99.90
16907;DHT22;8570;52.380;4.654;2023-11-18T03:55:02;6.40;99.90
16907;DHT22;8570;52.380;4.654;2023-11-18T04:00:07;6.40;99.90
16907;DHT22;8570;52.380;4.654;2023-11-18T04:05:12;6.40;99.90
16907;DHT22;8570;52.380;4.654;2023-11-18T04:10:14;6.40;99.90
16907;DHT22;8570;52.380;4.654;2023-11-18T04:15:20;6.50;99.90
16907;DHT22;8570;52.380;4.654;2023-11-18T04:20:21;6.50;99.90
16907;DHT22;8570;52.380;4.654;2023-11-18T04:25:24;6.50;99.90
16907;DHT22;8570;52.380;4.654;2023-11-18T04:30:27;6.50;99.90
16907;DHT22;8570;52.380;4.654;2023-11-18T04:35:29;6.50;99.90
16907;DHT22;8570;52.380;4.654;2023-11-18T04:40:31;6.50;99.90
16907;DHT22;8570;52.380;4.654;2023-11-18T04:45:35;6.50;99.90
16907;DHT22;8570;52.380;4.654;2023-11-18T04:50:40;6.50;99.90
16907;DHT22;8570;52.380;4.654;2023-11-18T04:55:42;6.50;99.90
16907;DHT22;8570;52.380;4.654;2023-11-18T05:00:46;6.60;99.90
16907;DHT22;8570;52.380;4.654;2023-11-18T05:05:49;6.60;99.90
16907;DHT22;8570;52.380;4.654;2023-11-18T05:10:51;6.60;99.90
16907;DHT22;8570;52.380;4.654;2023-11-18T05:15:54;6.60;99.90
16907;DHT22;8570;52.380;4.654;2023-11-18T05:20:56;6.60;99.90
16907;DHT22;8570;52.380;4.654;2023-11-18T05:25:59;6.60;99.90
16907;DHT22;8570;52.380;4.654;2023-11-18T05:31:03;6.60;99.90
16907;DHT22;8570;52.380;4.654;2023-11-18T05:36:06;6.60;99.90
16907;DHT22;8570;52.380;4.654;2023-11-18T05:41:08;6.60;99.90
16907;DHT22;8570;52.380;4.654;2023-11-18T05:46:18;6.70;99.90
16907;DHT22;8570;52.380;4.654;2023-11-18T05:51:24;6.70;99.90
16907;DHT22;8570;52.380;4.654;2023-11-18T05:56:27;6.70;99.90
16907;DHT22;8570;52.380;4.654;2023-11-18T06:01:30;6.70;99.90
16907;DHT22;8570;52.380;4.654;2023-11-18T06:06:32;6.70;99.90
16907;DHT22;8570;52.380;4.654;2023-11-18T06:11:34;6.70;99.90
16907;DHT22;8570;52.380;4.654;2023-11-18T06:16:39;6.70;99.90
16907;DHT22;8570;52.380;4.654;2023-11-18T06:21:41;6.70;99.90
16907;DHT22;8570;52.380;4.654;2023-11-18T06:26:43;6.70;99.90
16907;DHT22;8570;52.380;4.654;2023-11-18T06:31:46;6.70;99.90
16907;DHT22;8570;52.380;4.654;2023-11-18T06:36:49;6.70;99.90
16907;DHT22;8570;52.380;4.654;2023-11-18T06:41:51;6.70;99.90
16907;DHT22;8570;52.380;4.654;2023-11-18T06:46:55;6.70;99.90
16907;DHT22;8570;52.380;4.654;2023-11-18T06:51:57;6.70;99.90
16907;DHT22;8570;52.380;4.654;2023-11-18T06:56:58;6.70;99.90
16907;DHT22;8570;52.380;4.654;2023-11-18T07:02:03;6.70;99.90
16907;DHT22;8570;52.380;4.654;2023-11-18T07:07:06;6.70;99.90
16907;DHT22;8570;52.380;4.654;2023-11-18T07:12:09;6.70;99.90
16907;DHT22;8570;52.380;4.654;2023-11-18T07:17:12;6.70;99.90
16907;DHT22;8570;52.380;4.654;2023-11-18T07:22:14;6.70;99.90
16907;DHT22;8570;52.380;4.654;2023-11-18T07:27:16;6.70;99.90
16907;DHT22;8570;52.380;4.654;2023-11-18T07:32:19;6.70;99.90
16907;DHT22;8570;52.380;4.654;2023-11-18T07:37:21;6.70;99.90
16907;DHT22;8570;52.380;4.654;2023-11-18T07:42:23;6.70;99.90
16907;DHT22;8570;52.380;4.654;2023-11-18T07:47:27;6.70;99.90
16907;DHT22;8570;52.380;4.654;2023-11-18T07:52:31;6.70;99.90
16907;DHT22;8570;52.380;4.654;2023-11-18T07:57:34;6.70;99.90
16907;DHT22;8570;52.380;4.654;2023-11-18T08:02:38;6.70;99.90
16907;DHT22;8570;52.380;4.654;2023-11-18T08:07:40;6.70;99.90
16907;DHT22;8570;52.380;4.654;2023-11-18T08:12:44;6.80;99.90
16907;DHT22;8570;52.380;4.654;2023-11-18T08:17:48;6.80;99.90
16907;DHT22;8570;52.380;4.654;2023-11-18T08:22:50;6.80;99.90
16907;DHT22;8570;52.380;4.654;2023-11-18T08:27:52;6.80;99.90
16907;DHT22;8570;52.380;4.654;2023-11-18T08:32:56;6.80;99.90
16907;DHT22;8570;52.380;4.654;2023-11-18T08:37:58;6.80;99.90
16907;DHT22;8570;52.380;4.654;2023-11-18T08:43:02;6.80;99.90
16907;DHT22;8570;52.380;4.654;2023-11-18T08:48:09;6.80;99.90
16907;DHT22;8570;52.380;4.654;2023-11-18T08:53:11;6.80;99.90
16907;DHT22;8570;52.380;4.654;2023-11-18T08:58:13;6.80;99.90
16907;DHT22;8570;52.380;4.654;2023-11-18T09:03:22;6.80;99.90
16907;DHT22;8570;52.380;4.654;2023-11-18T09:08:29;6.90;99.90
16907;DHT22;8570;52.380;4.654;2023-11-18T09:13:33;6.90;99.90
16907;DHT22;8570;52.380;4.654;2023-11-18T09:18:38;6.90;99.90
16907;DHT22;8570;52.380;4.654;2023-11-18T09:23:41;6.90;99.90
16907;DHT22;8570;52.380;4.654;2023-11-18T09:28:44;7.00;99.90
16907;DHT22;8570;52.380;4.654;2023-11-18T09:33:47;7.00;99.90
16907;DHT22;8570;52.380;4.654;2023-11-18T09:38:53;7.00;99.90
16907;DHT22;8570;52.380;4.654;2023-11-18T09:43:55;7.10;99.90
16907;DHT22;8570;52.380;4.654;2023-11-18T09:49:10;7.10;99.90
16907;DHT22;8570;52.380;4.654;2023-11-18T09:54:27;7.10;99.90
16907;DHT22;8570;52.380;4.654;2023-11-18T09:59:39;7.10;99.90
16907;DHT22;8570;52.380;4.654;2023-11-18T10:04:48;7.20;99.90
16907;DHT22;8570;52.380;4.654;2023-11-18T10:09:50;7.20;99.90
16907;DHT22;8570;52.380;4.654;2023-11-18T10:14:57;7.20;99.90
16907;DHT22;8570;52.380;4.654;2023-11-18T10:20:01;7.20;99.90
16907;DHT22;8570;52.380;4.654;2023-11-18T10:25:23;7.20;99.90
16907;DHT22;8570;52.380;4.654;2023-11-18T10:30:28;7.20;99.90
16907;DHT22;8570;52.380;4.654;2023-11-18T10:35:34;7.20;99.90
16907;DHT22;8570;52.380;4.654;2023-11-18T10:40:36;7.30;99.90
16907;DHT22;8570;52.380;4.654;2023-11-18T10:45:38;7.30;99.90
16907;DHT22;8570;52.380;4.654;2023-11-18T10:50:44;7.20;99.90
16907;DHT22;8570;52.380;4.654;2023-11-18T10:56:03;7.30;99.90
16907;DHT22;8570;52.380;4.654;2023-11-18T11:01:35;7.30;99.90
16907;DHT22;8570;52.380;4.654;2023-11-18T11:06:44;7.30;99.90
16907;DHT22;8570;52.380;4.654;2023-11-18T11:11:54;7.30;99.90
16907;DHT22;8570;52.380;4.654;2023-11-18T11:16:58;7.30;99.90
16907;DHT22;8570;52.380;4.654;2023-11-18T11:22:15;7.40;99.90
16907;DHT22;8570;52.380;4.654;2023-11-18T11:27:25;7.40;99.90
16907;DHT22;8570;52.380;4.654;2023-11-18T11:32:45;7.40;99.90
16907;DHT22;8570;52.380;4.654;2023-11-18T11:37:50;7.40;99.90
16907;DHT22;8570;52.380;4.654;2023-11-18T11:42:54;7.50;99.90
16907;DHT22;8570;52.380;4.654;2023-11-18T11:47:59;7.50;99.90
16907;DHT22;8570;52.380;4.654;2023-11-18T11:53:24;7.60;99.90
16907;DHT22;8570;52.380;4.654;2023-11-18T11:58:30;7.60;99.90
16907;DHT22;8570;52.380;4.654;2023-11-18T12:03:33;7.70;99.90
16907;DHT22;8570;52.380;4.654;2023-11-18T12:08:51;7.70;99.90
16907;DHT22;8570;52.380;4.654;2023-11-18T12:14:03;7.80;99.90
16907;DHT22;8570;52.380;4.654;2023-11-18T12:19:40;7.80;99.90
16907;DHT22;8570;52.380;4.654;2023-11-18T12:25:30;7.80;99.90
16907;DHT22;8570;52.380;4.654;2023-11-18T12:30:41;7.90;99.90
16907;DHT22;8570;52.380;4.654;2023-11-18T12:36:20;7.90;99.90
16907;DHT22;8570;52.380;4.654;2023-11-18T12:41:34;7.90;99.90
16907;DHT22;8570;52.380;4.654;2023-11-18T12:46:51;8.00;99.90
16907;DHT22;8570;52.380;4.654;2023-11-18T12:51:57;8.00;99.90
16907;DHT22;8570;52.380;4.654;2023-11-18T12:57:05;8.00;99.90
16907;DHT22;8570;52.380;4.654;2023-11-18T13:02:17;8.00;99.90
16907;DHT22;8570;52.380;4.654;2023-11-18T13:07:21;8.00;99.90
16907;DHT22;8570;52.380;4.654;2023-11-18T13:12:29;8.10;99.90
16907;DHT22;8570;52.380;4.654;2023-11-18T13:17:34;8.10;99.90
16907;DHT22;8570;52.380;4.654;2023-11-18T13:22:55;8.10;99.90
16907;DHT22;8570;52.380;4.654;2023-11-18T13:28:03;8.20;99.90
16907;DHT22;8570;52.380;4.654;2023-11-18T13:33:09;8.20;99.90
16907;DHT22;8570;52.380;4.654;2023-11-18T13:38:12;8.20;99.90
16907;DHT22;8570;52.380;4.654;2023-11-18T13:43:16;8.20;99.90
16907;DHT22;8570;52.380;4.654;2023-11-18T13:48:18;8.20;99.90
16907;DHT22;8570;52.380;4.654;2023-11-18T13:53:20;8.20;99.90
16907;DHT22;8570;52.380;4.654;2023-11-18T13:58:24;8.20;99.90
16907;DHT22;8570;52.380;4.654;2023-11-18T14:03:29;8.30;99.90
16907;DHT22;8570;52.380;4.654;2023-11-18T14:08:32;8.30;99.90
16907;DHT22;8570;52.380;4.654;2023-11-18T14:13:36;8.30;99.90
16907;DHT22;8570;52.380;4.654;2023-11-18T14:18:38;8.30;99.90
16907;DHT22;8570;52.380;4.654;2023-11-18T14:23:42;8.30;99.90
16907;DHT22;8570;52.380;4.654;2023-11-18T14:28:45;8.30;99.90
16907;DHT22;8570;52.380;4.654;2023-11-18T14:33:47;8.40;99.90
16907;DHT22;8570;52.380;4.654;2023-11-18T14:38:49;8.40;99.90
16907;DHT22;8570;52.380;4.654;2023-11-18T14:43:53;8.40;99.90
16907;DHT22;8570;52.380;4.654;2023-11-18T14:48:55;8.40;99.90
16907;DHT22;8570;52.380;4.654;2023-11-18T14:53:57;8.40;99.90
16907;DHT22;8570;52.380;4.654;2023-11-18T14:59:02;8.50;99.90
16907;DHT22;8570;52.380;4.654;2023-11-18T15:04:05;8.50;99.90
16907;DHT22;8570;52.380;4.654;2023-11-18T15:09:07;8.50;99.90
16907;DHT22;8570;52.380;4.654;2023-11-18T15:14:12;8.50;99.90
16907;DHT22;8570;52.380;4.654;2023-11-18T15:19:14;8.50;99.90
16907;DHT22;8570;52.380;4.654;2023-11-18T15:24:16;8.50;99.90
16907;DHT22;8570;52.380;4.654;2023-11-18T15:29:19;8.60;99.90
16907;DHT22;8570;52.380;4.654;2023-11-18T15:34:21;8.60;99.90
16907;DHT22;8570;52.380;4.654;2023-11-18T15:39:23;8.60;99.90
16907;DHT22;8570;52.380;4.654;2023-11-18T15:44:27;8.60;99.90
16907;DHT22;8570;52.380;4.654;2023-11-18T15:49:29;8.60;99.90
16907;DHT22;8570;52.380;4.654;2023-11-18T15:54:31;8.60;99.90
16907;DHT22;8570;52.380;4.654;2023-11-18T15:59:34;8.70;99.90
16907;DHT22;8570;52.380;4.654;2023-11-18T16:04:36;8.70;99.90
16907;DHT22;8570;52.380;4.654;2023-11-18T16:09:38;8.70;99.90
16907;DHT22;8570;52.380;4.654;2023-11-18T16:14:41;8.70;99.90
16907;DHT22;8570;52.380;4.654;2023-11-18T16:19:44;8.70;99.90
16907;DHT22;8570;52.380;4.654;2023-11-18T16:24:46;8.80;99.90
16907;DHT22;8570;52.380;4.654;2023-11-18T16:29:50;8.80;99.90
16907;DHT22;8570;52.380;4.654;2023-11-18T16:34:52;8.90;99.90
16907;DHT22;8570;52.380;4.654;2023-11-18T16:39:54;8.90;99.90
16907;DHT22;8570;52.380;4.654;2023-11-18T16:44:57;9.00;99.90
16907;DHT22;8570;52.380;4.654;2023-11-18T16:50:00;9.00;99.90
16907;DHT22;8570;52.380;4.654;2023-11-18T16:55:04;9.10;99.90
16907;DHT22;8570;52.380;4.654;2023-11-18T17:00:09;9.10;99.90
16907;DHT22;8570;52.380;4.654;2023-11-18T17:05:16;9.20;99.90
16907;DHT22;8570;52.380;4.654;2023-11-18T17:10:19;9.30;99.90
16907;DHT22;8570;52.380;4.654;2023-11-18T17:15:24;9.30;99.90
16907;DHT22;8570;52.380;4.654;2023-11-18T17:20:27;9.40;99.90
16907;DHT22;8570;52.380;4.654;2023-11-18T17:25:29;9.50;99.90
16907;DHT22;8570;52.380;4.654;2023-11-18T17:30:32;9.50;99.90
16907;DHT22;8570;52.380;4.654;2023-11-18T17:35:37;9.60;99.90
16907;DHT22;8570;52.380;4.654;2023-11-18T17:40:41;9.60;99.90
16907;DHT22;8570;52.380;4.654;2023-11-18T17:45:44;9.80;99.90
16907;DHT22;8570;52.380;4.654;2023-11-18T17:50:47;9.80;99.90
16907;DHT22;8570;52.380;4.654;2023-11-18T17:55:49;9.90;99.90
16907;DHT22;8570;52.380;4.654;2023-11-18T18:00:54;10.00;99.90
16907;DHT22;8570;52.380;4.654;2023-11-18T18:05:55;10.20;99.90
16907;DHT22;8570;52.380;4.654;2023-11-18T18:10:57;10.40;99.90
16907;DHT22;8570;52.380;4.654;2023-11-18T18:16:01;10.60;99.90
16907;DHT22;8570;52.380;4.654;2023-11-18T18:21:04;10.90;99.90
16907;DHT22;8570;52.380;4.654;2023-11-18T18:31:12;11.40;99.90
16907;DHT22;8570;52.380;4.654;2023-11-18T18:36:14;11.60;99.90
16907;DHT22;8570;52.380;4.654;2023-11-18T18:41:18;11.80;99.90
16907;DHT22;8570;52.380;4.654;2023-11-18T18:46:21;11.90;99.90
16907;DHT22;8570;52.380;4.654;2023-11-18T18:51:23;12.10;99.90
16907;DHT22;8570;52.380;4.654;2023-11-18T18:56:25;12.20;99.90
16907;DHT22;8570;52.380;4.654;2023-11-18T19:01:29;12.30;99.90
16907;DHT22;8570;52.380;4.654;2023-11-18T19:06:31;12.30;99.90
16907;DHT22;8570;52.380;4.654;2023-11-18T19:11:33;12.40;99.90
16907;DHT22;8570;52.380;4.654;2023-11-18T19:16:37;12.50;99.90
16907;DHT22;8570;52.380;4.654;2023-11-18T19:21:39;12.50;99.90
